sensor_id;sensor_type;location;lat;lon;timestamp;P1;durP1;ratioP1;P2;durP2;ratioP2
71767;SDS011;59604;52.138;5.446;2023-02-15T00:02:01;37.40;;;15.85;;
71767;SDS011;59604;52.138;5.446;2023-02-15T00:04:28;37.33;;;14.38;;
71767;SDS011;59604;52.138;5.446;2023-02-15T00:07:16;34.47;;;12.88;;
71767;SDS011;59604;52.138;5.446;2023-02-15T00:12:12;30.55;;;11.77;;
71767;SDS011;59604;52.138;5.446;2023-02-15T00:14:40;36.15;;;13.32;;
71767;SDS011;59604;52.138;5.446;2023-02-15T00:17:07;29.80;;;12.35;;
71767;SDS011;59604;52.138;5.446;2023-02-15T00:19:33;33.60;;;13.93;;
71767;SDS011;59604;52.138;5.446;2023-02-15T00:22:01;31.73;;;13.05;;
71767;SDS011;59604;52.138;5.446;2023-02-15T00:24:28;35.67;;;14.52;;
71767;SDS011;59604;52.138;5.446;2023-02-15T00:26:55;36.70;;;15.00;;
71767;SDS011;59604;52.138;5.446;2023-02-15T00:29:22;36.60;;;14.90;;
71767;SDS011;59604;52.138;5.446;2023-02-15T00:31:50;34.90;;;15.30;;
71767;SDS011;59604;52.138;5.446;2023-02-15T00:34:20;36.58;;;15.35;;
71767;SDS011;59604;52.138;5.446;2023-02-15T00:36:49;37.38;;;15.32;;
71767;SDS011;59604;52.138;5.446;2023-02-15T00:39:16;37.25;;;14.05;;
71767;SDS011;59604;52.138;5.446;2023-02-15T00:41:46;34.13;;;13.93;;
71767;SDS011;59604;52.138;5.446;2023-02-15T00:44:13;35.00;;;14.13;;
71767;SDS011;59604;52.138;5.446;2023-02-15T00:46:40;38.17;;;15.32;;
71767;SDS011;59604;52.138;5.446;2023-02-15T00:49:08;32.72;;;15.00;;
71767;SDS011;59604;52.138;5.446;2023-02-15T00:51:36;32.78;;;13.80;;
71767;SDS011;59604;52.138;5.446;2023-02-15T00:54:05;34.17;;;13.70;;
71767;SDS011;59604;52.138;5.446;2023-02-15T00:56:32;35.22;;;13.43;;
71767;SDS011;59604;52.138;5.446;2023-02-15T00:59:01;29.02;;;12.48;;
71767;SDS011;59604;52.138;5.446;2023-02-15T01:01:28;35.00;;;13.60;;
71767;SDS011;59604;52.138;5.446;2023-02-15T01:04:08;34.22;;;14.40;;
71767;SDS011;59604;52.138;5.446;2023-02-15T01:06:37;39.97;;;14.27;;
71767;SDS011;59604;52.138;5.446;2023-02-15T01:09:04;38.47;;;15.40;;
71767;SDS011;59604;52.138;5.446;2023-02-15T01:11:31;36.45;;;14.82;;
71767;SDS011;59604;52.138;5.446;2023-02-15T01:13:58;33.35;;;13.82;;
71767;SDS011;59604;52.138;5.446;2023-02-15T01:16:26;37.58;;;13.98;;
71767;SDS011;59604;52.138;5.446;2023-02-15T01:18:54;39.47;;;14.65;;
71767;SDS011;59604;52.138;5.446;2023-02-15T01:21:23;34.78;;;14.45;;
71767;SDS011;59604;52.138;5.446;2023-02-15T01:23:51;39.17;;;15.88;;
71767;SDS011;59604;52.138;5.446;2023-02-15T01:26:21;36.83;;;14.90;;
71767;SDS011;59604;52.138;5.446;2023-02-15T01:28:48;36.17;;;14.57;;
71767;SDS011;59604;52.138;5.446;2023-02-15T01:31:17;37.67;;;15.32;;
71767;SDS011;59604;52.138;5.446;2023-02-15T01:33:46;38.97;;;14.60;;
71767;SDS011;59604;52.138;5.446;2023-02-15T01:36:14;33.97;;;14.30;;
71767;SDS011;59604;52.138;5.446;2023-02-15T01:38:40;34.85;;;14.20;;
71767;SDS011;59604;52.138;5.446;2023-02-15T01:41:08;36.50;;;14.80;;
71767;SDS011;59604;52.138;5.446;2023-02-15T01:43:48;34.90;;;13.82;;
71767;SDS011;59604;52.138;5.446;2023-02-15T01:46:17;35.47;;;13.63;;
71767;SDS011;59604;52.138;5.446;2023-02-15T01:51:15;34.25;;;13.32;;
71767;SDS011;59604;52.138;5.446;2023-02-15T01:53:48;35.22;;;14.43;;
71767;SDS011;59604;52.138;5.446;2023-02-15T01:56:22;35.78;;;14.13;;
71767;SDS011;59604;52.138;5.446;2023-02-15T01:58:53;36.15;;;13.57;;
71767;SDS011;59604;52.138;5.446;2023-02-15T02:01:21;32.53;;;13.35;;
71767;SDS011;59604;52.138;5.446;2023-02-15T02:06:26;36.55;;;14.40;;
71767;SDS011;59604;52.138;5.446;2023-02-15T02:08:53;37.70;;;14.88;;
71767;SDS011;59604;52.138;5.446;2023-02-15T02:11:21;36.80;;;14.63;;
71767;SDS011;59604;52.138;5.446;2023-02-15T02:13:48;33.55;;;13.23;;
71767;SDS011;59604;52.138;5.446;2023-02-15T02:38:25;55.28;;;17.60;;
71767;SDS011;59604;52.138;5.446;2023-02-15T02:41:10;60.33;;;17.20;;
71767;SDS011;59604;52.138;5.446;2023-02-15T02:44:06;62.38;;;16.08;;
71767;SDS011;59604;52.138;5.446;2023-02-15T02:49:17;68.50;;;15.77;;
71767;SDS011;59604;52.138;5.446;2023-02-15T02:51:58;51.67;;;15.07;;
71767;SDS011;59604;52.138;5.446;2023-02-15T02:54:29;36.33;;;14.20;;
71767;SDS011;59604;52.138;5.446;2023-02-15T02:56:59;33.92;;;13.70;;
71767;SDS011;59604;52.138;5.446;2023-02-15T02:59:31;34.33;;;14.32;;
71767;SDS011;59604;52.138;5.446;2023-02-15T03:02:37;32.53;;;13.40;;
71767;SDS011;59604;52.138;5.446;2023-02-15T03:05:02;34.28;;;13.38;;
71767;SDS011;59604;52.138;5.446;2023-02-15T03:07:32;33.28;;;13.55;;
71767;SDS011;59604;52.138;5.446;2023-02-15T03:10:00;36.83;;;14.93;;
71767;SDS011;59604;52.138;5.446;2023-02-15T03:12:31;34.33;;;14.35;;
71767;SDS011;59604;52.138;5.446;2023-02-15T03:15:02;33.90;;;13.50;;
71767;SDS011;59604;52.138;5.446;2023-02-15T03:17:46;34.55;;;14.00;;
71767;SDS011;59604;52.138;5.446;2023-02-15T03:20:28;31.77;;;13.77;;
71767;SDS011;59604;52.138;5.446;2023-02-15T03:23:10;33.22;;;13.82;;
71767;SDS011;59604;52.138;5.446;2023-02-15T03:25:44;30.17;;;13.65;;
71767;SDS011;59604;52.138;5.446;2023-02-15T03:28:18;31.65;;;11.98;;
71767;SDS011;59604;52.138;5.446;2023-02-15T03:30:51;33.65;;;14.23;;
71767;SDS011;59604;52.138;5.446;2023-02-15T03:33:22;36.25;;;13.82;;
71767;SDS011;59604;52.138;5.446;2023-02-15T03:38:29;33.75;;;12.82;;
71767;SDS011;59604;52.138;5.446;2023-02-15T03:41:03;32.85;;;13.45;;
71767;SDS011;59604;52.138;5.446;2023-02-15T03:46:29;32.20;;;12.70;;
71767;SDS011;59604;52.138;5.446;2023-02-15T03:49:10;34.33;;;14.90;;
71767;SDS011;59604;52.138;5.446;2023-02-15T03:51:42;33.88;;;13.43;;
71767;SDS011;59604;52.138;5.446;2023-02-15T03:54:13;33.03;;;14.02;;
71767;SDS011;59604;52.138;5.446;2023-02-15T03:57:04;34.85;;;13.40;;
71767;SDS011;59604;52.138;5.446;2023-02-15T03:59:52;33.20;;;13.15;;
71767;SDS011;59604;52.138;5.446;2023-02-15T04:02:38;35.05;;;13.40;;
71767;SDS011;59604;52.138;5.446;2023-02-15T04:05:11;35.83;;;14.05;;
71767;SDS011;59604;52.138;5.446;2023-02-15T04:07:37;32.42;;;12.85;;
71767;SDS011;59604;52.138;5.446;2023-02-15T04:10:05;34.00;;;13.02;;
71767;SDS011;59604;52.138;5.446;2023-02-15T04:12:51;32.88;;;12.70;;
71767;SDS011;59604;52.138;5.446;2023-02-15T04:15:20;37.72;;;13.25;;
71767;SDS011;59604;52.138;5.446;2023-02-15T04:18:06;30.73;;;12.38;;
71767;SDS011;59604;52.138;5.446;2023-02-15T04:20:32;31.77;;;12.23;;
71767;SDS011;59604;52.138;5.446;2023-02-15T04:23:17;30.50;;;12.07;;
71767;SDS011;59604;52.138;5.446;2023-02-15T04:26:05;30.35;;;11.77;;
71767;SDS011;59604;52.138;5.446;2023-02-15T04:28:32;30.27;;;12.13;;
71767;SDS011;59604;52.138;5.446;2023-02-15T04:30:59;29.85;;;11.70;;
71767;SDS011;59604;52.138;5.446;2023-02-15T04:33:26;32.55;;;12.80;;
71767;SDS011;59604;52.138;5.446;2023-02-15T04:35:53;30.80;;;13.20;;
71767;SDS011;59604;52.138;5.446;2023-02-15T04:38:20;30.98;;;12.77;;
71767;SDS011;59604;52.138;5.446;2023-02-15T04:43:16;29.73;;;11.70;;
71767;SDS011;59604;52.138;5.446;2023-02-15T04:45:48;32.45;;;12.02;;
71767;SDS011;59604;52.138;5.446;2023-02-15T04:48:16;30.73;;;12.30;;
71767;SDS011;59604;52.138;5.446;2023-02-15T04:50:44;31.45;;;11.50;;
71767;SDS011;59604;52.138;5.446;2023-02-15T04:53:11;28.63;;;12.05;;
71767;SDS011;59604;52.138;5.446;2023-02-15T04:55:38;30.88;;;11.55;;
71767;SDS011;59604;52.138;5.446;2023-02-15T04:58:06;32.08;;;12.40;;
71767;SDS011;59604;52.138;5.446;2023-02-15T05:00:33;28.77;;;11.63;;
71767;SDS011;59604;52.138;5.446;2023-02-15T05:03:01;29.67;;;11.98;;
71767;SDS011;59604;52.138;5.446;2023-02-15T05:05:28;27.75;;;12.32;;
71767;SDS011;59604;52.138;5.446;2023-02-15T05:07:54;27.55;;;11.40;;
71767;SDS011;59604;52.138;5.446;2023-02-15T05:10:22;30.13;;;12.18;;
71767;SDS011;59604;52.138;5.446;2023-02-15T05:12:48;28.23;;;11.73;;
71767;SDS011;59604;52.138;5.446;2023-02-15T05:15:15;29.25;;;11.63;;
71767;SDS011;59604;52.138;5.446;2023-02-15T05:17:42;30.65;;;11.43;;
71767;SDS011;59604;52.138;5.446;2023-02-15T05:20:09;27.92;;;11.38;;
71767;SDS011;59604;52.138;5.446;2023-02-15T05:22:36;28.05;;;11.73;;
71767;SDS011;59604;52.138;5.446;2023-02-15T05:25:03;30.45;;;11.85;;
71767;SDS011;59604;52.138;5.446;2023-02-15T05:27:50;26.42;;;11.05;;
71767;SDS011;59604;52.138;5.446;2023-02-15T05:30:35;28.73;;;10.82;;
71767;SDS011;59604;52.138;5.446;2023-02-15T05:33:02;30.95;;;11.80;;
71767;SDS011;59604;52.138;5.446;2023-02-15T05:35:29;32.03;;;12.07;;
71767;SDS011;59604;52.138;5.446;2023-02-15T05:37:56;25.02;;;10.75;;
71767;SDS011;59604;52.138;5.446;2023-02-15T05:40:23;30.67;;;11.75;;
71767;SDS011;59604;52.138;5.446;2023-02-15T05:42:50;27.15;;;11.07;;
71767;SDS011;59604;52.138;5.446;2023-02-15T05:45:17;32.08;;;12.52;;
71767;SDS011;59604;52.138;5.446;2023-02-15T05:47:44;26.65;;;11.77;;
71767;SDS011;59604;52.138;5.446;2023-02-15T05:50:11;30.08;;;12.10;;
71767;SDS011;59604;52.138;5.446;2023-02-15T05:52:38;29.25;;;11.38;;
71767;SDS011;59604;52.138;5.446;2023-02-15T05:55:04;29.45;;;11.65;;
71767;SDS011;59604;52.138;5.446;2023-02-15T05:57:32;29.80;;;11.27;;
71767;SDS011;59604;52.138;5.446;2023-02-15T06:00:01;28.17;;;12.43;;
71767;SDS011;59604;52.138;5.446;2023-02-15T06:02:34;36.08;;;12.43;;
71767;SDS011;59604;52.138;5.446;2023-02-15T06:05:01;29.25;;;11.63;;
71767;SDS011;59604;52.138;5.446;2023-02-15T06:07:29;25.83;;;11.15;;
71767;SDS011;59604;52.138;5.446;2023-02-15T06:09:56;29.65;;;12.40;;
71767;SDS011;59604;52.138;5.446;2023-02-15T06:12:23;33.60;;;11.43;;
71767;SDS011;59604;52.138;5.446;2023-02-15T06:14:50;32.55;;;10.93;;
71767;SDS011;59604;52.138;5.446;2023-02-15T06:17:17;29.00;;;11.93;;
71767;SDS011;59604;52.138;5.446;2023-02-15T06:19:44;28.75;;;11.85;;
71767;SDS011;59604;52.138;5.446;2023-02-15T06:22:11;31.52;;;12.70;;
71767;SDS011;59604;52.138;5.446;2023-02-15T06:27:09;28.48;;;10.77;;
71767;SDS011;59604;52.138;5.446;2023-02-15T06:29:36;29.50;;;10.27;;
71767;SDS011;59604;52.138;5.446;2023-02-15T06:32:03;29.27;;;11.70;;
71767;SDS011;59604;52.138;5.446;2023-02-15T06:34:30;27.42;;;10.77;;
71767;SDS011;59604;52.138;5.446;2023-02-15T06:36:57;31.85;;;11.70;;
71767;SDS011;59604;52.138;5.446;2023-02-15T06:39:24;30.23;;;11.30;;
71767;SDS011;59604;52.138;5.446;2023-02-15T06:41:51;30.27;;;11.30;;
71767;SDS011;59604;52.138;5.446;2023-02-15T06:44:18;32.88;;;11.35;;
71767;SDS011;59604;52.138;5.446;2023-02-15T06:46:48;31.15;;;11.77;;
71767;SDS011;59604;52.138;5.446;2023-02-15T06:49:15;28.90;;;11.02;;
71767;SDS011;59604;52.138;5.446;2023-02-15T06:51:42;32.10;;;11.32;;
71767;SDS011;59604;52.138;5.446;2023-02-15T06:54:08;33.92;;;12.25;;
71767;SDS011;59604;52.138;5.446;2023-02-15T06:56:36;31.48;;;12.75;;
71767;SDS011;59604;52.138;5.446;2023-02-15T06:59:03;29.83;;;11.93;;
71767;SDS011;59604;52.138;5.446;2023-02-15T07:01:30;33.58;;;11.85;;
71767;SDS011;59604;52.138;5.446;2023-02-15T07:03:57;32.97;;;12.52;;
71767;SDS011;59604;52.138;5.446;2023-02-15T07:06:24;32.70;;;12.63;;
71767;SDS011;59604;52.138;5.446;2023-02-15T07:08:51;33.90;;;12.38;;
71767;SDS011;59604;52.138;5.446;2023-02-15T07:11:19;32.97;;;13.00;;
71767;SDS011;59604;52.138;5.446;2023-02-15T07:14:04;32.03;;;11.85;;
71767;SDS011;59604;52.138;5.446;2023-02-15T07:16:31;30.58;;;12.10;;
71767;SDS011;59604;52.138;5.446;2023-02-15T07:18:58;32.88;;;11.80;;
71767;SDS011;59604;52.138;5.446;2023-02-15T07:21:25;33.00;;;12.75;;
71767;SDS011;59604;52.138;5.446;2023-02-15T07:23:52;35.38;;;12.80;;
71767;SDS011;59604;52.138;5.446;2023-02-15T07:26:23;34.67;;;13.15;;
71767;SDS011;59604;52.138;5.446;2023-02-15T07:28:50;33.40;;;13.07;;
71767;SDS011;59604;52.138;5.446;2023-02-15T07:31:17;34.45;;;13.00;;
71767;SDS011;59604;52.138;5.446;2023-02-15T07:33:44;30.70;;;12.88;;
71767;SDS011;59604;52.138;5.446;2023-02-15T07:36:11;34.58;;;12.43;;
71767;SDS011;59604;52.138;5.446;2023-02-15T07:38:39;34.75;;;13.15;;
71767;SDS011;59604;52.138;5.446;2023-02-15T07:41:08;32.13;;;12.10;;
71767;SDS011;59604;52.138;5.446;2023-02-15T07:43:38;33.05;;;13.02;;
71767;SDS011;59604;52.138;5.446;2023-02-15T07:46:11;37.25;;;13.32;;
71767;SDS011;59604;52.138;5.446;2023-02-15T07:48:40;32.70;;;12.23;;
71767;SDS011;59604;52.138;5.446;2023-02-15T07:51:08;31.80;;;11.30;;
71767;SDS011;59604;52.138;5.446;2023-02-15T07:53:37;32.95;;;12.70;;
71767;SDS011;59604;52.138;5.446;2023-02-15T07:56:06;38.63;;;13.30;;
71767;SDS011;59604;52.138;5.446;2023-02-15T07:58:35;39.30;;;14.00;;
71767;SDS011;59604;52.138;5.446;2023-02-15T08:01:22;42.90;;;15.55;;
71767;SDS011;59604;52.138;5.446;2023-02-15T08:03:51;44.38;;;14.85;;
71767;SDS011;59604;52.138;5.446;2023-02-15T08:06:20;41.92;;;14.93;;
71767;SDS011;59604;52.138;5.446;2023-02-15T08:08:48;42.28;;;15.80;;
71767;SDS011;59604;52.138;5.446;2023-02-15T08:11:16;33.17;;;13.07;;
71767;SDS011;59604;52.138;5.446;2023-02-15T08:19:21;39.38;;;14.70;;
71767;SDS011;59604;52.138;5.446;2023-02-15T08:21:53;48.70;;;16.65;;
71767;SDS011;59604;52.138;5.446;2023-02-15T08:24:25;40.25;;;15.68;;
71767;SDS011;59604;52.138;5.446;2023-02-15T08:26:53;41.55;;;15.10;;
71767;SDS011;59604;52.138;5.446;2023-02-15T08:29:22;44.72;;;15.55;;
71767;SDS011;59604;52.138;5.446;2023-02-15T08:31:58;40.58;;;14.23;;
71767;SDS011;59604;52.138;5.446;2023-02-15T08:34:29;34.33;;;13.90;;
71767;SDS011;59604;52.138;5.446;2023-02-15T08:36:57;40.55;;;15.07;;
71767;SDS011;59604;52.138;5.446;2023-02-15T08:39:24;47.75;;;17.00;;
71767;SDS011;59604;52.138;5.446;2023-02-15T08:41:51;38.15;;;15.20;;
71767;SDS011;59604;52.138;5.446;2023-02-15T08:44:18;43.03;;;16.27;;
71767;SDS011;59604;52.138;5.446;2023-02-15T08:46:47;38.88;;;15.45;;
71767;SDS011;59604;52.138;5.446;2023-02-15T08:49:16;34.08;;;14.93;;
71767;SDS011;59604;52.138;5.446;2023-02-15T08:51:47;35.63;;;14.48;;
71767;SDS011;59604;52.138;5.446;2023-02-15T08:54:20;41.22;;;15.20;;
71767;SDS011;59604;52.138;5.446;2023-02-15T08:56:48;36.80;;;14.57;;
71767;SDS011;59604;52.138;5.446;2023-02-15T08:59:16;41.13;;;15.50;;
71767;SDS011;59604;52.138;5.446;2023-02-15T09:01:47;41.15;;;15.27;;
71767;SDS011;59604;52.138;5.446;2023-02-15T09:04:15;41.63;;;16.42;;
71767;SDS011;59604;52.138;5.446;2023-02-15T09:06:44;36.42;;;15.20;;
71767;SDS011;59604;52.138;5.446;2023-02-15T09:09:14;39.92;;;15.05;;
71767;SDS011;59604;52.138;5.446;2023-02-15T09:11:44;35.67;;;15.27;;
71767;SDS011;59604;52.138;5.446;2023-02-15T09:14:22;44.60;;;16.50;;
71767;SDS011;59604;52.138;5.446;2023-02-15T09:16:51;41.75;;;16.05;;
71767;SDS011;59604;52.138;5.446;2023-02-15T09:19:19;46.22;;;16.58;;
71767;SDS011;59604;52.138;5.446;2023-02-15T09:21:48;40.72;;;16.15;;
71767;SDS011;59604;52.138;5.446;2023-02-15T09:24:15;45.28;;;16.35;;
71767;SDS011;59604;52.138;5.446;2023-02-15T09:26:44;44.63;;;17.15;;
71767;SDS011;59604;52.138;5.446;2023-02-15T09:29:13;45.03;;;15.93;;
71767;SDS011;59604;52.138;5.446;2023-02-15T09:31:46;43.20;;;17.85;;
71767;SDS011;59604;52.138;5.446;2023-02-15T09:34:16;40.45;;;17.02;;
71767;SDS011;59604;52.138;5.446;2023-02-15T09:36:45;41.05;;;16.60;;
71767;SDS011;59604;52.138;5.446;2023-02-15T09:39:14;43.08;;;16.40;;
71767;SDS011;59604;52.138;5.446;2023-02-15T09:44:14;40.00;;;17.52;;
71767;SDS011;59604;52.138;5.446;2023-02-15T09:47:06;40.00;;;16.85;;
71767;SDS011;59604;52.138;5.446;2023-02-15T09:57:50;39.33;;;16.95;;
71767;SDS011;59604;52.138;5.446;2023-02-15T10:28:13;47.20;;;17.88;;
71767;SDS011;59604;52.138;5.446;2023-02-15T10:33:37;44.58;;;18.50;;
71767;SDS011;59604;52.138;5.446;2023-02-15T10:36:11;45.85;;;18.70;;
71767;SDS011;59604;52.138;5.446;2023-02-15T10:38:48;44.03;;;17.17;;
71767;SDS011;59604;52.138;5.446;2023-02-15T11:03:11;41.05;;;16.65;;
71767;SDS011;59604;52.138;5.446;2023-02-15T11:05:45;42.85;;;17.20;;
71767;SDS011;59604;52.138;5.446;2023-02-15T11:08:24;44.20;;;17.90;;
71767;SDS011;59604;52.138;5.446;2023-02-15T11:10:54;41.63;;;18.30;;
71767;SDS011;59604;52.138;5.446;2023-02-15T11:13:26;40.55;;;17.90;;
71767;SDS011;59604;52.138;5.446;2023-02-15T11:18:56;44.05;;;17.40;;
71767;SDS011;59604;52.138;5.446;2023-02-15T11:21:39;43.05;;;17.40;;
71767;SDS011;59604;52.138;5.446;2023-02-15T11:26:46;41.75;;;17.05;;
71767;SDS011;59604;52.138;5.446;2023-02-15T11:34:38;41.92;;;16.42;;
71767;SDS011;59604;52.138;5.446;2023-02-15T11:37:15;40.42;;;16.90;;
71767;SDS011;59604;52.138;5.446;2023-02-15T11:39:46;43.72;;;18.17;;
71767;SDS011;59604;52.138;5.446;2023-02-15T11:42:21;43.15;;;18.30;;
71767;SDS011;59604;52.138;5.446;2023-02-15T11:47:29;40.85;;;17.25;;
71767;SDS011;59604;52.138;5.446;2023-02-15T11:49:56;41.03;;;17.95;;
71767;SDS011;59604;52.138;5.446;2023-02-15T11:52:23;42.20;;;19.15;;
71767;SDS011;59604;52.138;5.446;2023-02-15T11:54:51;41.88;;;18.42;;
71767;SDS011;59604;52.138;5.446;2023-02-15T11:58:00;39.45;;;17.30;;
71767;SDS011;59604;52.138;5.446;2023-02-15T12:00:43;41.45;;;18.08;;
71767;SDS011;59604;52.138;5.446;2023-02-15T12:06:20;46.42;;;18.73;;
71767;SDS011;59604;52.138;5.446;2023-02-15T12:08:59;42.75;;;17.63;;
71767;SDS011;59604;52.138;5.446;2023-02-15T12:11:35;44.42;;;18.60;;
71767;SDS011;59604;52.138;5.446;2023-02-15T12:14:06;40.90;;;17.95;;
71767;SDS011;59604;52.138;5.446;2023-02-15T12:16:50;38.63;;;18.15;;
71767;SDS011;59604;52.138;5.446;2023-02-15T12:19:33;42.70;;;19.45;;
71767;SDS011;59604;52.138;5.446;2023-02-15T12:24:44;43.33;;;17.77;;
71767;SDS011;59604;52.138;5.446;2023-02-15T12:27:21;40.40;;;17.85;;
71767;SDS011;59604;52.138;5.446;2023-02-15T12:29:51;39.58;;;18.10;;
71767;SDS011;59604;52.138;5.446;2023-02-15T12:32:50;39.92;;;18.38;;
71767;SDS011;59604;52.138;5.446;2023-02-15T12:40:37;42.70;;;18.58;;
71767;SDS011;59604;52.138;5.446;2023-02-15T12:48:51;41.08;;;18.27;;
71767;SDS011;59604;52.138;5.446;2023-02-15T12:51:51;39.85;;;18.75;;
71767;SDS011;59604;52.138;5.446;2023-02-15T12:56:55;43.47;;;20.20;;
71767;SDS011;59604;52.138;5.446;2023-02-15T12:59:23;43.17;;;18.75;;
71767;SDS011;59604;52.138;5.446;2023-02-15T13:01:51;44.00;;;19.33;;
71767;SDS011;59604;52.138;5.446;2023-02-15T13:04:26;45.90;;;20.17;;
71767;SDS011;59604;52.138;5.446;2023-02-15T13:06:56;41.40;;;19.08;;
71767;SDS011;59604;52.138;5.446;2023-02-15T13:14:36;47.20;;;19.92;;
71767;SDS011;59604;52.138;5.446;2023-02-15T13:17:04;44.08;;;20.02;;
71767;SDS011;59604;52.138;5.446;2023-02-15T13:19:39;44.97;;;19.73;;
71767;SDS011;59604;52.138;5.446;2023-02-15T13:22:13;42.67;;;18.67;;
71767;SDS011;59604;52.138;5.446;2023-02-15T13:24:44;43.65;;;20.52;;
71767;SDS011;59604;52.138;5.446;2023-02-15T13:27:15;43.90;;;18.80;;
71767;SDS011;59604;52.138;5.446;2023-02-15T13:29:49;46.72;;;19.17;;
71767;SDS011;59604;52.138;5.446;2023-02-15T13:32:26;43.35;;;19.45;;
71767;SDS011;59604;52.138;5.446;2023-02-15T13:34:57;46.00;;;20.00;;
71767;SDS011;59604;52.138;5.446;2023-02-15T13:37:42;50.22;;;20.65;;
71767;SDS011;59604;52.138;5.446;2023-02-15T13:54:02;43.03;;;19.08;;
71767;SDS011;59604;52.138;5.446;2023-02-15T14:26:29;46.22;;;20.13;;
71767;SDS011;59604;52.138;5.446;2023-02-15T14:32:32;42.95;;;20.20;;
71767;SDS011;59604;52.138;5.446;2023-02-15T14:35:03;47.97;;;21.00;;
71767;SDS011;59604;52.138;5.446;2023-02-15T14:49:12;46.97;;;20.27;;
71767;SDS011;59604;52.138;5.446;2023-02-15T14:56:42;46.60;;;19.77;;
71767;SDS011;59604;52.138;5.446;2023-02-15T15:01:42;45.75;;;20.58;;
71767;SDS011;59604;52.138;5.446;2023-02-15T15:04:26;44.95;;;20.77;;
71767;SDS011;59604;52.138;5.446;2023-02-15T15:07:07;45.92;;;20.65;;
71767;SDS011;59604;52.138;5.446;2023-02-15T15:09:39;44.45;;;19.92;;
71767;SDS011;59604;52.138;5.446;2023-02-15T15:14:52;45.53;;;20.65;;
71767;SDS011;59604;52.138;5.446;2023-02-15T15:19:59;43.85;;;19.13;;
71767;SDS011;59604;52.138;5.446;2023-02-15T15:28:08;46.35;;;20.13;;
71767;SDS011;59604;52.138;5.446;2023-02-15T15:49:45;44.40;;;19.08;;
71767;SDS011;59604;52.138;5.446;2023-02-15T15:52:14;42.92;;;18.90;;
71767;SDS011;59604;52.138;5.446;2023-02-15T15:54:43;46.45;;;19.17;;
71767;SDS011;59604;52.138;5.446;2023-02-15T16:00:30;42.70;;;18.70;;
71767;SDS011;59604;52.138;5.446;2023-02-15T16:05:26;42.05;;;17.83;;
71767;SDS011;59604;52.138;5.446;2023-02-15T16:07:52;44.63;;;19.27;;
71767;SDS011;59604;52.138;5.446;2023-02-15T16:10:23;43.95;;;18.48;;
71767;SDS011;59604;52.138;5.446;2023-02-15T16:12:54;43.40;;;19.20;;
71767;SDS011;59604;52.138;5.446;2023-02-15T16:15:22;44.15;;;20.00;;
71767;SDS011;59604;52.138;5.446;2023-02-15T16:17:52;44.22;;;19.98;;
71767;SDS011;59604;52.138;5.446;2023-02-15T16:20:26;47.28;;;19.55;;
71767;SDS011;59604;52.138;5.446;2023-02-15T16:28:49;47.45;;;20.33;;
71767;SDS011;59604;52.138;5.446;2023-02-15T16:31:18;44.35;;;19.02;;
71767;SDS011;59604;52.138;5.446;2023-02-15T16:33:45;49.58;;;21.05;;
71767;SDS011;59604;52.138;5.446;2023-02-15T16:36:19;46.60;;;19.65;;
71767;SDS011;59604;52.138;5.446;2023-02-15T16:41:26;49.70;;;20.42;;
71767;SDS011;59604;52.138;5.446;2023-02-15T16:43:55;46.03;;;20.23;;
71767;SDS011;59604;52.138;5.446;2023-02-15T16:46:27;52.83;;;21.35;;
71767;SDS011;59604;52.138;5.446;2023-02-15T16:48:58;52.47;;;22.23;;
71767;SDS011;59604;52.138;5.446;2023-02-15T16:51:30;51.45;;;21.50;;
71767;SDS011;59604;52.138;5.446;2023-02-15T16:54:05;57.17;;;27.33;;
71767;SDS011;59604;52.138;5.446;2023-02-15T16:56:34;50.42;;;21.08;;
71767;SDS011;59604;52.138;5.446;2023-02-15T16:59:02;49.83;;;20.13;;
71767;SDS011;59604;52.138;5.446;2023-02-15T17:01:30;49.72;;;21.13;;
71767;SDS011;59604;52.138;5.446;2023-02-15T17:04:12;47.85;;;20.05;;
71767;SDS011;59604;52.138;5.446;2023-02-15T17:06:40;46.53;;;19.55;;
71767;SDS011;59604;52.138;5.446;2023-02-15T17:09:13;51.47;;;21.10;;
71767;SDS011;59604;52.138;5.446;2023-02-15T17:11:44;46.72;;;19.52;;
71767;SDS011;59604;52.138;5.446;2023-02-15T17:14:12;54.83;;;21.15;;
71767;SDS011;59604;52.138;5.446;2023-02-15T17:21:55;48.28;;;20.75;;
71767;SDS011;59604;52.138;5.446;2023-02-15T17:24:28;53.75;;;21.33;;
71767;SDS011;59604;52.138;5.446;2023-02-15T17:26:58;54.30;;;19.65;;
71767;SDS011;59604;52.138;5.446;2023-02-15T17:29:43;49.97;;;19.75;;
71767;SDS011;59604;52.138;5.446;2023-02-15T17:32:17;54.97;;;21.00;;
71767;SDS011;59604;52.138;5.446;2023-02-15T17:37:28;49.53;;;20.55;;
71767;SDS011;59604;52.138;5.446;2023-02-15T17:39:54;51.92;;;20.15;;
71767;SDS011;59604;52.138;5.446;2023-02-15T17:42:21;52.35;;;20.27;;
71767;SDS011;59604;52.138;5.446;2023-02-15T17:44:48;54.47;;;21.17;;
71767;SDS011;59604;52.138;5.446;2023-02-15T17:47:22;56.00;;;20.10;;
71767;SDS011;59604;52.138;5.446;2023-02-15T17:49:52;54.75;;;21.75;;
71767;SDS011;59604;52.138;5.446;2023-02-15T17:52:19;50.50;;;20.40;;
71767;SDS011;59604;52.138;5.446;2023-02-15T17:54:46;49.53;;;20.67;;
71767;SDS011;59604;52.138;5.446;2023-02-15T17:57:32;48.53;;;20.63;;
71767;SDS011;59604;52.138;5.446;2023-02-15T17:59:58;49.13;;;20.75;;
71767;SDS011;59604;52.138;5.446;2023-02-15T18:02:43;49.88;;;20.77;;
71767;SDS011;59604;52.138;5.446;2023-02-15T18:05:30;50.05;;;20.83;;
71767;SDS011;59604;52.138;5.446;2023-02-15T18:08:17;54.22;;;22.00;;
71767;SDS011;59604;52.138;5.446;2023-02-15T18:11:07;55.72;;;21.02;;
71767;SDS011;59604;52.138;5.446;2023-02-15T18:13:53;53.22;;;20.45;;
71767;SDS011;59604;52.138;5.446;2023-02-15T18:16:24;52.38;;;20.98;;
71767;SDS011;59604;52.138;5.446;2023-02-15T18:18:52;53.53;;;21.73;;
71767;SDS011;59604;52.138;5.446;2023-02-15T18:21:19;53.33;;;20.92;;
71767;SDS011;59604;52.138;5.446;2023-02-15T18:23:45;54.40;;;21.95;;
71767;SDS011;59604;52.138;5.446;2023-02-15T18:26:16;62.17;;;23.30;;
71767;SDS011;59604;52.138;5.446;2023-02-15T18:28:45;56.35;;;22.65;;
71767;SDS011;59604;52.138;5.446;2023-02-15T18:31:12;57.58;;;22.27;;
71767;SDS011;59604;52.138;5.446;2023-02-15T18:33:44;52.33;;;21.52;;
71767;SDS011;59604;52.138;5.446;2023-02-15T18:36:25;54.85;;;20.63;;
71767;SDS011;59604;52.138;5.446;2023-02-15T18:38:54;52.13;;;21.05;;
71767;SDS011;59604;52.138;5.446;2023-02-15T18:41:21;53.00;;;21.38;;
71767;SDS011;59604;52.138;5.446;2023-02-15T18:43:48;55.05;;;21.15;;
71767;SDS011;59604;52.138;5.446;2023-02-15T18:46:16;55.00;;;20.85;;
71767;SDS011;59604;52.138;5.446;2023-02-15T18:48:43;51.47;;;20.90;;
71767;SDS011;59604;52.138;5.446;2023-02-15T18:51:21;62.13;;;22.75;;
71767;SDS011;59604;52.138;5.446;2023-02-15T18:53:49;57.05;;;22.35;;
71767;SDS011;59604;52.138;5.446;2023-02-15T18:56:20;57.65;;;22.67;;
71767;SDS011;59604;52.138;5.446;2023-02-15T18:58:48;53.10;;;21.30;;
71767;SDS011;59604;52.138;5.446;2023-02-15T19:01:16;54.22;;;20.80;;
71767;SDS011;59604;52.138;5.446;2023-02-15T19:03:45;52.40;;;21.33;;
71767;SDS011;59604;52.138;5.446;2023-02-15T19:08:41;59.33;;;23.55;;
71767;SDS011;59604;52.138;5.446;2023-02-15T19:11:11;57.03;;;21.98;;
71767;SDS011;59604;52.138;5.446;2023-02-15T19:13:41;58.22;;;21.73;;
71767;SDS011;59604;52.138;5.446;2023-02-15T19:16:12;53.80;;;21.00;;